createdAt,value
2023-04-08T00:00:13.273Z,14.57
2023-04-08T00:04:15.766Z,15.48
2023-04-08T00:08:17.657Z,14.70
2023-04-08T00:12:19.926Z,14.50
2023-04-08T00:16:22.852Z,13.05
2023-04-08T00:20:24.886Z,13.27
2023-04-08T00:24:26.718Z,12.80
2023-04-08T00:28:28.531Z,13.38
2023-04-08T00:32:30.569Z,13.43
2023-04-08T00:36:32.719Z,12.35
2023-04-08T00:40:35.141Z,14.32
2023-04-08T00:44:37.040Z,13.38
2023-04-08T00:48:38.947Z,12.93
2023-04-08T00:52:41.066Z,15.68
2023-04-08T00:56:45.085Z,14.30
2023-04-08T01:00:58.643Z,14.23
2023-04-08T01:05:15.864Z,12.70
2023-04-08T01:09:21.642Z,13.88
2023-04-08T01:13:25.344Z,13.18
2023-04-08T01:17:28.082Z,14.38
2023-04-08T01:21:30.569Z,13.90
2023-04-08T01:25:36.878Z,13.70
2023-04-08T01:29:39.453Z,13.38
2023-04-08T01:33:42.068Z,13.95
2023-04-08T01:37:47.093Z,14.50
2023-04-08T01:41:51.328Z,14.25
2023-04-08T01:45:58.576Z,13.75
2023-04-08T01:50:02.102Z,14.77
2023-04-08T01:54:03.878Z,15.77
2023-04-08T01:58:09.202Z,14.60
2023-04-08T02:02:12.631Z,13.88
2023-04-08T02:06:14.759Z,14.55
2023-04-08T02:10:16.690Z,14.35
2023-04-08T02:14:18.741Z,14.48
2023-04-08T02:18:28.316Z,13.98
2023-04-08T02:22:46.195Z,14.63
2023-04-08T02:26:51.211Z,13.27
2023-04-08T02:30:54.827Z,14.77
2023-04-08T02:34:58.314Z,15.48
2023-04-08T02:39:00.592Z,16.15
2023-04-08T02:43:02.848Z,16.15
2023-04-08T02:47:05.299Z,15.95
2023-04-08T02:51:10.149Z,16.05
2023-04-08T02:55:12.158Z,16.25
2023-04-08T02:59:14.417Z,15.45
2023-04-08T03:03:16.559Z,16.50
2023-04-08T03:07:18.415Z,15.82
2023-04-08T03:11:21.383Z,16.55
2023-04-08T03:15:23.276Z,15.45
2023-04-08T03:19:25.095Z,14.98
2023-04-08T03:23:26.954Z,15.40
2023-04-08T03:27:28.952Z,14.70
2023-04-08T03:31:30.896Z,17.30
2023-04-08T03:35:33.543Z,16.30
2023-04-08T03:39:35.406Z,15.43
2023-04-08T03:43:38.136Z,16.15
2023-04-08T03:47:40.074Z,18.58
2023-04-08T03:51:41.961Z,17.90
2023-04-08T03:55:43.758Z,17.90
2023-04-08T03:59:45.745Z,18.13
2023-04-08T04:03:47.671Z,17.73
2023-04-08T04:07:49.545Z,18.50
2023-04-08T04:11:51.488Z,19.38
2023-04-08T04:15:53.368Z,18.48
2023-04-08T04:19:55.270Z,18.08
2023-04-08T04:23:57.117Z,18.50
2023-04-08T04:27:58.981Z,18.38
2023-04-08T04:32:01.047Z,17.98
2023-04-08T04:36:02.909Z,16.73
2023-04-08T04:40:05.958Z,16.60
2023-04-08T04:44:07.843Z,16.98
2023-04-08T04:48:09.637Z,15.88
2023-04-08T04:52:11.660Z,16.40
2023-04-08T04:56:13.544Z,17.00
2023-04-08T05:00:16.563Z,17.60
2023-04-08T05:04:18.377Z,16.80
2023-04-08T05:08:21.367Z,18.23
2023-04-08T05:12:23.251Z,17.50
2023-04-08T05:16:25.236Z,19.33
2023-04-08T05:20:27.073Z,13.45
2023-04-08T05:24:28.894Z,14.10
2023-04-08T05:28:30.968Z,12.18
2023-04-08T05:32:32.913Z,12.13
2023-04-08T05:36:34.879Z,11.95
2023-04-08T05:40:36.779Z,11.68
2023-04-08T05:44:38.970Z,11.07
2023-04-08T05:48:40.778Z,11.77
2023-04-08T05:52:46.090Z,12.00
2023-04-08T05:56:49.098Z,11.90
2023-04-08T06:00:51.173Z,11.98
2023-04-08T06:04:53.071Z,11.93
2023-04-08T06:08:54.885Z,12.00
2023-04-08T06:12:56.692Z,11.77
2023-04-08T06:16:58.716Z,11.88
2023-04-08T06:21:00.689Z,12.43
2023-04-08T06:25:03.140Z,13.77
2023-04-08T06:29:05.272Z,12.30
2023-04-08T06:33:07.448Z,13.73
2023-04-08T06:37:09.341Z,13.45
2023-04-08T06:41:11.132Z,14.40
2023-04-08T06:45:13.054Z,13.57
2023-04-08T06:49:14.872Z,12.35
2023-04-08T06:53:16.666Z,11.85
2023-04-08T06:57:18.512Z,11.73
2023-04-08T07:01:20.852Z,11.52
2023-04-08T07:05:22.673Z,11.38
2023-04-08T07:09:24.489Z,11.57
2023-04-08T07:13:26.330Z,10.65
2023-04-08T07:17:28.318Z,10.95
2023-04-08T07:21:31.374Z,11.30
2023-04-08T07:25:35.384Z,11.35
2023-04-08T07:29:37.154Z,11.98
2023-04-08T07:33:38.963Z,13.07
2023-04-08T07:37:40.792Z,11.27
2023-04-08T07:41:42.572Z,10.98
2023-04-08T07:45:44.417Z,12.32
2023-04-08T07:49:47.180Z,12.57
2023-04-08T07:53:49.216Z,13.20
2023-04-08T07:57:50.998Z,13.90
2023-04-08T08:01:52.824Z,13.40
2023-04-08T08:05:54.616Z,12.98
2023-04-08T08:09:56.492Z,12.45
2023-04-08T08:13:58.343Z,12.73
2023-04-08T08:18:00.611Z,13.57
2023-04-08T08:22:02.478Z,13.55
2023-04-08T08:26:07.104Z,13.10
2023-04-08T08:30:09.518Z,13.77
2023-04-08T08:34:11.413Z,11.25
2023-04-08T08:38:14.183Z,12.45
2023-04-08T08:42:26.641Z,12.30
2023-04-08T08:46:28.528Z,12.68
2023-04-08T08:50:30.602Z,13.63
2023-04-08T08:54:32.811Z,11.77
2023-04-08T08:58:35.017Z,11.82
2023-04-08T09:02:36.983Z,12.55
2023-04-08T09:06:39.090Z,13.02
2023-04-08T09:10:40.941Z,12.45
2023-04-08T09:14:43.273Z,12.15
2023-04-08T09:18:49.323Z,12.10
2023-04-08T09:22:54.213Z,12.32
2023-04-08T09:26:56.769Z,12.05
2023-04-08T09:30:58.965Z,12.65
2023-04-08T09:35:00.930Z,10.82
2023-04-08T09:39:02.762Z,10.52
2023-04-08T09:43:06.642Z,11.68
2023-04-08T09:47:25.027Z,11.43
2023-04-08T09:51:33.403Z,9.95
2023-04-08T09:59:39.668Z,9.55
2023-04-08T10:03:50.269Z,11.05
2023-04-08T10:07:52.848Z,10.45
2023-04-08T10:11:55.579Z,9.82
2023-04-08T10:16:26.050Z,10.13
2023-04-08T10:20:36.932Z,8.95
2023-04-08T10:24:38.763Z,9.73
2023-04-08T10:28:40.735Z,9.63
2023-04-08T10:32:42.685Z,7.93
2023-04-08T10:36:48.214Z,9.48
2023-04-08T10:40:50.158Z,7.78
2023-04-08T10:44:52.311Z,8.52
2023-04-08T10:49:03.939Z,7.65
2023-04-08T10:53:06.743Z,8.60
2023-04-08T10:57:08.660Z,7.03
2023-04-08T11:01:10.600Z,8.27
2023-04-08T11:05:12.564Z,8.52
2023-04-08T11:09:16.763Z,8.15
2023-04-08T11:13:19.102Z,7.63
2023-04-08T11:17:21.776Z,8.40
2023-04-08T11:21:25.739Z,7.57
2023-04-08T11:25:28.749Z,7.53
2023-04-08T11:29:31.042Z,8.30
2023-04-08T11:33:33.371Z,7.38
2023-04-08T11:37:42.268Z,7.13
2023-04-08T11:41:44.786Z,7.70
2023-04-08T11:45:46.653Z,7.00
2023-04-08T11:49:48.820Z,7.13
2023-04-08T11:53:54.638Z,6.38
2023-04-08T11:58:03.537Z,6.75
2023-04-08T12:02:05.531Z,6.22
2023-04-08T12:06:08.995Z,6.45
2023-04-08T12:10:12.389Z,6.07
2023-04-08T12:14:14.821Z,6.75
2023-04-08T12:18:16.760Z,6.75
2023-04-08T12:22:18.571Z,6.15
2023-04-08T12:26:20.459Z,5.68
2023-04-08T12:30:22.526Z,6.65
2023-04-08T12:34:24.975Z,5.47
2023-04-08T12:38:27.299Z,5.85
2023-04-08T12:42:29.361Z,6.05
2023-04-08T12:46:31.493Z,5.60
2023-04-08T12:50:33.277Z,6.15
2023-04-08T12:54:35.208Z,5.63
2023-04-08T12:58:37.451Z,6.07
2023-04-08T13:02:39.379Z,6.28
2023-04-08T13:06:41.336Z,6.25
2023-04-08T13:10:43.765Z,5.15
2023-04-08T13:14:45.528Z,5.22
2023-04-08T13:18:47.748Z,5.55
2023-04-08T13:22:49.514Z,5.78
2023-04-08T13:26:51.951Z,5.25
2023-04-08T13:30:54.335Z,5.65
2023-04-08T13:34:56.453Z,5.88
2023-04-08T13:38:58.687Z,5.40
2023-04-08T13:43:00.649Z,6.22
2023-04-08T13:47:02.814Z,5.57
2023-04-08T13:51:04.683Z,5.88
2023-04-08T13:55:06.999Z,6.68
2023-04-08T13:59:10.446Z,5.88
2023-04-08T14:03:12.273Z,5.93
2023-04-08T14:07:14.586Z,6.63
2023-04-08T14:11:16.532Z,5.85
2023-04-08T14:15:18.428Z,5.70
2023-04-08T14:19:20.458Z,5.85
2023-04-08T14:23:22.269Z,6.38
2023-04-08T14:27:24.055Z,5.45
2023-04-08T14:31:26.092Z,5.68
2023-04-08T14:35:28.026Z,6.07
2023-04-08T14:39:29.886Z,6.53
2023-04-08T14:43:31.667Z,6.15
2023-04-08T14:47:33.581Z,5.40
2023-04-08T14:51:38.014Z,5.72
2023-04-08T14:55:39.970Z,5.38
2023-04-08T14:59:41.759Z,5.25
2023-04-08T15:03:43.676Z,4.43
2023-04-08T15:07:47.433Z,5.55
2023-04-08T15:11:49.289Z,5.75
2023-04-08T15:15:53.962Z,6.10
2023-04-08T15:19:55.866Z,6.05
2023-04-08T15:23:57.911Z,5.57
2023-04-08T15:27:59.822Z,6.25
2023-04-08T15:32:01.748Z,7.35
2023-04-08T15:36:04.334Z,6.07
2023-04-08T15:40:07.081Z,5.35
2023-04-08T15:44:08.956Z,6.05
2023-04-08T15:48:13.554Z,6.30
2023-04-08T15:52:15.463Z,7.00
2023-04-08T15:56:18.278Z,7.68
2023-04-08T16:00:20.244Z,6.75
2023-04-08T16:04:23.221Z,8.02
2023-04-08T16:08:25.734Z,7.15
2023-04-08T16:12:27.594Z,7.63
2023-04-08T16:16:30.040Z,8.00
2023-04-08T16:20:32.267Z,6.68
2023-04-08T16:24:36.779Z,6.45
2023-04-08T16:28:40.041Z,6.15
2023-04-08T16:32:42.217Z,6.38
2023-04-08T16:36:44.049Z,6.20
2023-04-08T16:40:45.861Z,5.53
2023-04-08T16:44:47.807Z,6.57
2023-04-08T16:48:49.612Z,5.32
2023-04-08T16:52:51.718Z,5.68
2023-04-08T16:56:53.610Z,4.78
2023-04-08T17:00:55.715Z,4.72
2023-04-08T17:04:57.531Z,5.03
2023-04-08T17:08:59.368Z,5.47
2023-04-08T17:13:01.295Z,6.47
2023-04-08T17:17:03.178Z,6.82
2023-04-08T17:21:05.281Z,7.28
2023-04-08T17:25:07.782Z,7.55
2023-04-08T17:29:10.280Z,6.60
2023-04-08T17:33:12.081Z,6.78
2023-04-08T17:37:13.967Z,7.72
2023-04-08T17:41:21.603Z,7.35
2023-04-08T17:45:32.527Z,6.82
2023-04-08T17:49:34.488Z,8.30
2023-04-08T17:53:36.309Z,6.40
2023-04-08T17:57:39.187Z,7.03
2023-04-08T18:01:41.217Z,7.45
2023-04-08T18:05:43.332Z,7.22
2023-04-08T18:09:48.142Z,7.75
2023-04-08T18:13:50.096Z,8.43
2023-04-08T18:17:52.216Z,7.88
2023-04-08T18:21:55.438Z,8.25
2023-04-08T18:25:57.289Z,8.60
2023-04-08T18:29:59.380Z,8.43
2023-04-08T18:34:01.177Z,9.38
2023-04-08T18:38:02.980Z,9.63
2023-04-08T18:42:04.853Z,9.35
2023-04-08T18:46:06.700Z,10.55
2023-04-08T18:50:09.459Z,10.43
2023-04-08T18:54:11.252Z,10.02
2023-04-08T18:58:13.113Z,10.75
2023-04-08T19:02:15.328Z,11.90
2023-04-08T19:06:17.687Z,9.93
2023-04-08T19:10:19.758Z,10.23
2023-04-08T19:14:21.789Z,10.30
2023-04-08T19:18:23.750Z,10.75
2023-04-08T19:22:25.582Z,10.45
2023-04-08T19:26:27.413Z,11.32
2023-04-08T19:30:29.382Z,11.90
2023-04-08T19:34:31.273Z,12.93
2023-04-08T19:38:33.105Z,11.52
2023-04-08T19:42:35.069Z,11.05
2023-04-08T19:46:37.503Z,11.90
2023-04-08T19:50:39.751Z,13.48
2023-04-08T19:54:43.571Z,13.85
2023-04-08T19:58:46.433Z,12.50
2023-04-08T20:02:48.611Z,11.98
2023-04-08T20:06:50.629Z,12.32
2023-04-08T20:10:54.071Z,12.77
2023-04-08T20:14:55.916Z,13.48
2023-04-08T20:18:57.677Z,12.18
2023-04-08T20:22:59.488Z,13.15
2023-04-08T20:27:01.608Z,13.25
2023-04-08T20:31:03.642Z,12.95
2023-04-08T20:35:06.004Z,13.00
2023-04-08T20:39:10.959Z,12.50
2023-04-08T20:43:12.795Z,12.80
2023-04-08T20:47:14.637Z,12.50
2023-04-08T20:51:17.677Z,12.40
2023-04-08T20:55:19.641Z,11.30
2023-04-08T20:59:21.463Z,11.88
2023-04-08T21:03:23.367Z,12.52
2023-04-08T21:07:26.412Z,12.00
2023-04-08T21:11:28.637Z,11.63
2023-04-08T21:15:30.627Z,12.32
2023-04-08T21:19:32.471Z,12.32
2023-04-08T21:23:34.278Z,12.55
2023-04-08T21:27:36.210Z,13.68
2023-04-08T21:31:38.259Z,12.82
2023-04-08T21:35:40.242Z,12.23
2023-04-08T21:39:42.051Z,12.38
2023-04-08T21:43:43.864Z,12.90
2023-04-08T21:47:45.787Z,12.23
2023-04-08T21:51:47.642Z,12.25
2023-04-08T21:55:49.728Z,11.77
2023-04-08T21:59:51.850Z,11.95
2023-04-08T22:03:55.669Z,11.63
2023-04-08T22:07:57.586Z,11.70
2023-04-08T22:11:59.456Z,12.48
2023-04-08T22:16:01.281Z,12.98
2023-04-08T22:20:03.519Z,11.82
2023-04-08T22:24:05.500Z,11.95
2023-04-08T22:28:07.790Z,12.20
2023-04-08T22:32:09.655Z,12.63
2023-04-08T22:36:11.548Z,12.32
2023-04-08T22:40:13.461Z,13.18
2023-04-08T22:44:15.949Z,13.15
2023-04-08T22:48:17.789Z,13.68
2023-04-08T22:52:19.644Z,13.20
2023-04-08T22:56:21.718Z,13.50
2023-04-08T23:00:23.702Z,14.45
2023-04-08T23:04:25.893Z,14.05
2023-04-08T23:08:27.779Z,13.68
2023-04-08T23:12:29.659Z,13.82
2023-04-08T23:16:31.803Z,14.80
2023-04-08T23:20:34.693Z,14.52
2023-04-08T23:24:36.488Z,13.13
2023-04-08T23:28:38.293Z,14.60
2023-04-08T23:32:40.183Z,15.10
2023-04-08T23:36:42.065Z,14.10
2023-04-08T23:40:43.997Z,13.95
2023-04-08T23:44:48.124Z,15.27
2023-04-08T23:48:50.166Z,15.70
2023-04-08T23:52:52.258Z,15.80
2023-04-08T23:56:54.043Z,17.20
